Preview of NWS' New Version of Forecast
This preview is not operational and should not be used for support decisions.

Terminal Aerodrome Forecast (TAF)

Issued by National Weather Service (NWS)

                            
000
FTUS42 KCAE 230839 AAA
TAFOGB
TAF AMD
KOGB 230839Z 2309/2406 24004KT P6SM SKC
     FM231500 23005KT P6SM SCT040
     FM231900 23008KT P6SM VCTS BKN040CB
     FM240200 18004KT P6SM OVC150=